Iron Mountain, South Dakota
Current Conditions -  °F | °C
As of 2:55 PM on Thursday 18 Dec 2014 (Local Time) from K9V9 Reporting Station
Overcast Overcast  
Wind Chill: 20°   Ceiling: 1500
Heat Index: 28°   Visibility: 10mi
Dew Point: 24°   Wind: 7mph
Humidity: 86%   Direction: 160°SSE
Pressure: 30.09"   Gusts: NA
Location:  43.8859°N, 99.8336°W
Report Text: K9V9 182055Z AUTO 16006KT 10SM OVC015 M02/M04 A3009 RMK AO2 T10251045
Loading
Personal Weather Stations






























Interactive Weather Map New forecast layout! Learn more

10-Day Weather Forecast

Advertisements
Track Severe Weather on mobile